Time;durP1;ratioP1;P1;durP2;ratioP2;P2;SDS_P1;SDS_P2;PMS_P1;PMS_P2;Temp;Humidity;BMP_temperature;BMP_pressure;BME280_temperature;BME280_humidity;BME280_pressure;Samples;Min_cycle;Max_cycle;Signal;HPM_P1;HPM_P2
2020/12/24 00:02:19;;;;;;;6.22;1.83;;;8.60;99.90;;;;;;5052784;28;20033;-90
2020/12/24 00:04:44;;;;;;;5.68;1.98;;;8.50;99.90;;;;;;5053907;28;20451;-90
2020/12/24 00:07:10;;;;;;;5.50;2.60;;;8.50;99.90;;;;;;5053846;28;20029;-89
2020/12/24 00:09:35;;;;;;;5.55;1.88;;;8.50;99.90;;;;;;5052480;28;20033;-90
2020/12/24 00:12:01;;;;;;;4.82;1.70;;;8.40;99.90;;;;;;5053251;28;20531;-88
2020/12/24 00:14:27;;;;;;;4.75;1.95;;;8.40;99.90;;;;;;5036659;28;20132;-89
2020/12/24 00:16:52;;;;;;;3.42;1.70;;;8.50;99.90;;;;;;5047309;28;20371;-88
2020/12/24 00:19:19;;;;;;;6.10;2.05;;;8.50;99.90;;;;;;5035598;28;20029;-88
2020/12/24 00:21:44;;;;;;;3.60;2.15;;;8.50;99.90;;;;;;5049668;28;20068;-88
2020/12/24 00:24:10;;;;;;;5.35;1.80;;;8.60;99.90;;;;;;5045644;28;20475;-89
2020/12/24 00:26:36;;;;;;;3.05;1.77;;;8.50;99.90;;;;;;5050535;28;20033;-89
2020/12/24 00:29:06;;;;;;;3.13;2.00;;;8.50;99.90;;;;;;5052934;28;20060;-88
2020/12/24 00:31:33;;;;;;;4.25;2.20;;;8.50;99.90;;;;;;5053745;28;20029;-88
2020/12/24 00:34:00;;;;;;;5.45;2.10;;;8.50;99.90;;;;;;5051446;28;20041;-88
2020/12/24 00:36:26;;;;;;;6.05;2.60;;;8.50;99.90;;;;;;5038515;28;20036;-88
2020/12/24 00:38:52;;;;;;;5.60;2.20;;;8.50;99.90;;;;;;5053570;28;20033;-87
2020/12/24 00:41:19;;;;;;;6.15;2.83;;;8.40;99.90;;;;;;5051838;28;20029;-88
2020/12/24 00:43:44;;;;;;;5.78;2.78;;;8.50;99.90;;;;;;5050053;28;20040;-89
2020/12/24 00:46:10;;;;;;;7.78;3.45;;;8.50;99.90;;;;;;5050578;28;20044;-88
2020/12/24 00:48:36;;;;;;;4.53;2.88;;;8.50;99.90;;;;;;5050295;28;20037;-89
2020/12/24 00:51:01;;;;;;;4.75;2.70;;;8.50;99.90;;;;;;5050057;28;20057;-89
2020/12/24 00:53:27;;;;;;;9.82;3.53;;;8.50;99.90;;;;;;5050063;28;20422;-88
2020/12/24 00:55:52;;;;;;;8.38;3.45;;;8.50;99.90;;;;;;5054270;28;20040;-87
2020/12/24 00:58:18;;;;;;;7.35;3.00;;;8.50;99.90;;;;;;5055077;28;20068;-89
2020/12/24 01:00:46;;;;;;;10.48;3.25;;;8.50;99.90;;;;;;5053469;28;20490;-88
2020/12/24 01:03:11;;;;;;;10.13;3.22;;;8.50;99.90;;;;;;5053162;28;20036;-88
2020/12/24 01:05:37;;;;;;;13.90;2.92;;;8.50;99.90;;;;;;5054304;28;20434;-88
2020/12/24 01:08:02;;;;;;;12.52;3.35;;;8.50;99.90;;;;;;5052812;28;20044;-86
2020/12/24 01:10:28;;;;;;;7.55;2.17;;;8.50;99.90;;;;;;5052435;28;20032;-89
2020/12/24 01:12:54;;;;;;;12.15;2.20;;;8.50;99.90;;;;;;5052270;28;20041;-88
2020/12/24 01:15:19;;;;;;;11.35;2.55;;;8.50;99.90;;;;;;5052226;28;20026;-89
2020/12/24 01:17:45;;;;;;;9.68;2.00;;;8.50;99.90;;;;;;5052592;28;20122;-88
2020/12/24 01:20:11;;;;;;;11.50;2.55;;;8.40;99.90;;;;;;5052193;28;20047;-88
2020/12/24 01:22:39;;;;;;;13.93;2.45;;;8.40;99.90;;;;;;5052424;28;20497;-89
2020/12/24 01:25:04;;;;;;;10.50;2.20;;;8.40;99.90;;;;;;5052870;28;20029;-89
2020/12/24 01:27:30;;;;;;;13.27;1.98;;;8.30;99.90;;;;;;5052506;28;20059;-88
2020/12/24 01:29:56;;;;;;;9.23;1.77;;;8.30;99.90;;;;;;5051774;28;20040;-88
2020/12/24 01:32:22;;;;;;;10.55;2.22;;;8.30;99.90;;;;;;5052258;28;20029;-88
2020/12/24 01:34:47;;;;;;;9.02;2.50;;;8.30;99.90;;;;;;5052363;28;20128;-88
2020/12/24 01:37:13;;;;;;;9.35;2.13;;;8.30;99.90;;;;;;5052338;28;20068;-88
2020/12/24 01:39:38;;;;;;;7.90;1.90;;;8.30;99.90;;;;;;5051833;28;20043;-86
2020/12/24 01:42:04;;;;;;;9.18;1.80;;;8.30;99.90;;;;;;5047376;28;20037;-87
2020/12/24 01:44:30;;;;;;;7.57;1.65;;;8.20;99.90;;;;;;5044288;28;20037;-89
2020/12/24 01:46:55;;;;;;;6.72;1.73;;;8.10;99.90;;;;;;5052318;28;20056;-87
2020/12/24 01:49:21;;;;;;;6.55;1.60;;;8.10;99.90;;;;;;5052539;28;20032;-88
2020/12/24 01:51:56;;;;;;;6.57;1.50;;;8.10;99.90;;;;;;5051735;28;20052;-87
2020/12/24 01:54:26;;;;;;;10.48;2.30;;;8.00;99.90;;;;;;5033506;28;20583;-88
2020/12/24 01:56:52;;;;;;;4.68;1.58;;;8.00;99.90;;;;;;5049050;28;20091;-88
2020/12/24 01:59:18;;;;;;;6.95;1.70;;;8.00;99.90;;;;;;5054472;28;20126;-91
2020/12/24 02:01:45;;;;;;;6.80;1.80;;;8.00;99.90;;;;;;5055163;28;20075;-89
2020/12/24 02:04:12;;;;;;;6.43;1.67;;;8.00;99.90;;;;;;5056171;28;20483;-88
2020/12/24 02:06:42;;;;;;;7.63;1.92;;;8.00;99.90;;;;;;5074056;28;20017;-91
2020/12/24 02:09:08;;;;;;;7.18;1.90;;;8.00;99.90;;;;;;5077149;28;20103;-89
2020/12/24 02:11:34;;;;;;;8.10;2.42;;;8.00;99.90;;;;;;5074502;28;20036;-89
2020/12/24 02:14:00;;;;;;;6.15;1.73;;;8.00;99.90;;;;;;5061202;28;20045;-88
2020/12/24 02:16:26;;;;;;;4.90;1.88;;;8.00;99.90;;;;;;5059883;28;20029;-86
2020/12/24 02:18:51;;;;;;;9.77;1.92;;;7.90;99.90;;;;;;5050059;28;20048;-87
2020/12/24 02:21:17;;;;;;;10.13;1.95;;;8.00;99.90;;;;;;5053077;28;20033;-89
2020/12/24 02:23:43;;;;;;;5.85;1.52;;;7.90;99.90;;;;;;5054438;28;20365;-89
2020/12/24 02:26:09;;;;;;;8.65;1.77;;;7.90;99.90;;;;;;5029532;28;20446;-90
2020/12/24 02:28:35;;;;;;;7.80;1.98;;;7.90;99.90;;;;;;5044266;28;20489;-87
2020/12/24 02:31:02;;;;;;;10.30;1.75;;;8.00;99.90;;;;;;5039458;28;20032;-88
2020/12/24 02:33:28;;;;;;;7.10;2.10;;;8.00;99.90;;;;;;5053912;28;20045;-87
2020/12/24 02:35:55;;;;;;;10.43;1.90;;;8.00;99.90;;;;;;5040542;28;20049;-89
2020/12/24 02:38:21;;;;;;;10.55;2.80;;;8.00;99.90;;;;;;5040283;28;20060;-88
2020/12/24 02:40:47;;;;;;;5.28;1.92;;;8.00;99.90;;;;;;5032918;28;20075;-90
2020/12/24 02:43:13;;;;;;;14.63;2.33;;;7.90;99.90;;;;;;5032806;28;20069;-88
2020/12/24 02:45:38;;;;;;;12.43;2.20;;;8.00;99.90;;;;;;5033201;28;20029;-89
2020/12/24 02:48:05;;;;;;;9.48;2.30;;;8.00;99.90;;;;;;5032709;28;20037;-89
2020/12/24 02:50:30;;;;;;;7.78;2.03;;;8.00;99.90;;;;;;5042419;28;20174;-89
2020/12/24 02:52:57;;;;;;;8.32;1.98;;;8.00;99.90;;;;;;5055833;28;20196;-89
2020/12/24 02:55:23;;;;;;;13.82;2.85;;;8.00;99.90;;;;;;5056004;28;20036;-89
2020/12/24 02:57:48;;;;;;;13.07;3.15;;;8.00;99.90;;;;;;5055849;28;20025;-88
2020/12/24 03:00:14;;;;;;;10.75;2.42;;;8.00;99.90;;;;;;5056206;28;20413;-90
2020/12/24 03:02:40;;;;;;;9.27;3.03;;;8.00;99.90;;;;;;5054986;28;20043;-89
2020/12/24 03:05:07;;;;;;;6.47;2.25;;;8.00;99.90;;;;;;5054926;28;20033;-89
2020/12/24 03:07:32;;;;;;;6.70;2.05;;;8.10;99.90;;;;;;5056112;28;20056;-89
2020/12/24 03:09:58;;;;;;;14.18;2.88;;;8.10;99.90;;;;;;5055949;28;20039;-89
2020/12/24 03:12:25;;;;;;;8.38;2.38;;;8.10;99.90;;;;;;5055177;28;20098;-90
2020/12/24 03:14:51;;;;;;;13.23;3.58;;;8.10;99.90;;;;;;5056011;28;20467;-87
2020/12/24 03:17:19;;;;;;;13.65;2.47;;;8.10;99.90;;;;;;5073693;28;20041;-90
2020/12/24 03:19:44;;;;;;;14.57;3.22;;;8.10;99.90;;;;;;5056231;28;20036;-91
2020/12/24 03:22:10;;;;;;;9.35;2.10;;;8.10;99.90;;;;;;5056323;28;20028;-89
2020/12/24 03:24:35;;;;;;;11.68;2.45;;;8.10;99.90;;;;;;5073893;28;20540;-89
2020/12/24 03:27:01;;;;;;;12.88;2.40;;;8.10;99.90;;;;;;5074192;28;20063;-88
2020/12/24 03:29:29;;;;;;;9.27;2.55;;;8.10;99.90;;;;;;5056293;28;20032;-89
2020/12/24 03:31:54;;;;;;;10.43;2.45;;;8.10;99.90;;;;;;5056028;28;20035;-90
2020/12/24 03:34:20;;;;;;;11.75;2.28;;;8.10;99.90;;;;;;5055996;28;20037;-89
2020/12/24 03:36:46;;;;;;;16.08;2.80;;;8.10;99.90;;;;;;5056131;28;20237;-88
2020/12/24 03:39:11;;;;;;;16.08;2.42;;;8.10;99.90;;;;;;5056046;28;20402;-89
2020/12/24 03:41:37;;;;;;;15.23;2.33;;;8.10;99.90;;;;;;5056159;28;20117;-89
2020/12/24 03:44:03;;;;;;;13.50;3.50;;;8.10;99.90;;;;;;5073987;28;20033;-89
2020/12/24 03:46:28;;;;;;;13.15;2.25;;;8.10;99.90;;;;;;5072627;28;20021;-89
2020/12/24 03:48:54;;;;;;;13.50;3.03;;;8.10;99.90;;;;;;5055802;28;20028;-90
2020/12/24 03:51:20;;;;;;;12.25;2.80;;;8.10;99.90;;;;;;5057744;28;20052;-90
2020/12/24 03:53:45;;;;;;;12.52;2.47;;;8.10;99.90;;;;;;5077316;28;20090;-88
2020/12/24 03:56:12;;;;;;;12.63;2.30;;;8.10;99.90;;;;;;5059466;28;20113;-89
2020/12/24 03:58:38;;;;;;;14.00;2.80;;;8.10;99.90;;;;;;5076571;28;20056;-90
2020/12/24 04:01:03;;;;;;;15.43;2.47;;;8.10;99.90;;;;;;5059260;28;20029;-90
2020/12/24 04:03:29;;;;;;;13.88;2.70;;;8.10;99.90;;;;;;5059773;28;20024;-89
2020/12/24 04:05:55;;;;;;;11.90;2.75;;;8.10;99.90;;;;;;5059433;28;20040;-88
2020/12/24 04:08:20;;;;;;;10.63;2.10;;;8.10;99.90;;;;;;5059392;28;20475;-91
2020/12/24 04:10:46;;;;;;;12.90;2.30;;;8.10;99.90;;;;;;5077366;28;20032;-90
2020/12/24 04:13:12;;;;;;;14.88;2.70;;;8.10;99.90;;;;;;5059301;28;20403;-91
2020/12/24 04:15:37;;;;;;;9.75;2.38;;;8.10;99.90;;;;;;5059652;28;20032;-89
2020/12/24 04:18:03;;;;;;;10.30;2.28;;;8.10;99.90;;;;;;5076049;28;20032;-89
2020/12/24 04:20:28;;;;;;;15.48;2.45;;;8.10;99.90;;;;;;5059001;28;20036;-88
2020/12/24 04:22:54;;;;;;;10.85;2.20;;;8.10;99.90;;;;;;5059177;28;20131;-90
2020/12/24 04:25:20;;;;;;;11.68;2.80;;;8.10;99.90;;;;;;5077104;28;20028;-89
2020/12/24 04:27:46;;;;;;;12.73;3.60;;;8.10;99.90;;;;;;5076900;28;20131;-89
2020/12/24 04:30:11;;;;;;;11.73;2.72;;;8.10;99.90;;;;;;5059300;28;20534;-89
2020/12/24 04:32:37;;;;;;;11.18;2.10;;;8.10;99.90;;;;;;5076723;28;20049;-90
2020/12/24 04:35:03;;;;;;;9.80;2.50;;;8.10;99.90;;;;;;5058889;28;20035;-90
2020/12/24 04:37:29;;;;;;;10.98;2.33;;;8.10;99.90;;;;;;5077121;28;20058;-89
2020/12/24 04:39:54;;;;;;;11.75;2.63;;;8.10;99.90;;;;;;5075432;28;20028;-90
2020/12/24 04:42:21;;;;;;;13.05;2.22;;;8.10;99.90;;;;;;5077015;28;20024;-89
2020/12/24 04:44:49;;;;;;;9.02;2.22;;;8.10;99.90;;;;;;5057890;28;20056;-90
2020/12/24 04:47:19;;;;;;;15.43;2.70;;;8.10;99.90;;;;;;5058301;28;20485;-89
2020/12/24 04:49:46;;;;;;;9.68;2.28;;;8.10;99.90;;;;;;5058076;28;20032;-89
2020/12/24 04:52:15;;;;;;;12.93;1.60;;;8.10;99.90;;;;;;5058480;28;20466;-89
2020/12/24 04:54:41;;;;;;;9.00;1.80;;;8.10;99.90;;;;;;5058079;28;20189;-90
2020/12/24 04:57:08;;;;;;;11.07;1.85;;;8.10;99.90;;;;;;5058130;28;20087;-89
2020/12/24 04:59:35;;;;;;;8.73;2.13;;;8.10;99.90;;;;;;5058160;28;20035;-90
2020/12/24 05:02:02;;;;;;;4.38;1.20;;;8.00;99.90;;;;;;5058476;28;20131;-91
2020/12/24 05:04:29;;;;;;;2.10;0.85;;;7.70;99.90;;;;;;5058754;28;20474;-89
2020/12/24 05:07:01;;;;;;;2.67;0.60;;;7.30;99.90;;;;;;5058702;28;20031;-89
2020/12/24 05:09:27;;;;;;;1.67;0.87;;;7.00;99.90;;;;;;5058489;28;20037;-90
2020/12/24 05:11:53;;;;;;;1.27;0.50;;;6.60;99.90;;;;;;5058359;28;20036;-90
2020/12/24 05:14:24;;;;;;;0.90;0.60;;;6.30;99.90;;;;;;5058703;28;20063;-90
2020/12/24 05:16:59;;;;;;;0.73;0.40;;;6.10;99.90;;;;;;5059079;28;20482;-90
2020/12/24 05:19:33;;;;;;;1.15;0.47;;;6.00;99.90;;;;;;5058443;28;20040;-90
2020/12/24 05:22:16;;;;;;;1.30;0.40;;;5.80;99.90;;;;;;5058130;28;20037;-90
2020/12/24 05:24:42;;;;;;;0.40;0.30;;;5.70;99.90;;;;;;5058158;28;20074;-90
2020/12/24 05:27:13;;;;;;;0.45;0.35;;;5.50;99.90;;;;;;5057862;28;20032;-91
2020/12/24 05:29:40;;;;;;;0.43;0.28;;;5.40;99.90;;;;;;5057981;28;20032;-91
2020/12/24 05:32:07;;;;;;;2.25;0.50;;;5.30;99.90;;;;;;5058726;28;20029;-90
2020/12/24 05:34:33;;;;;;;0.57;0.30;;;5.20;99.90;;;;;;5058313;28;20032;-89
2020/12/24 05:37:13;;;;;;;2.03;0.40;;;5.20;99.90;;;;;;5060066;28;20021;-89
2020/12/24 05:39:46;;;;;;;0.40;0.20;;;5.10;99.90;;;;;;5058252;28;20486;-90
2020/12/24 05:42:11;;;;;;;0.88;0.57;;;5.10;99.90;;;;;;5058204;28;20024;-89
2020/12/24 05:44:38;;;;;;;1.45;0.50;;;5.00;99.90;;;;;;5057879;28;20025;-89
2020/12/24 05:47:04;;;;;;;0.43;0.40;;;5.00;99.90;;;;;;5057790;28;20052;-88
2020/12/24 05:49:30;;;;;;;1.50;0.50;;;4.90;99.90;;;;;;5057491;28;20044;-89
2020/12/24 05:52:06;;;;;;;0.40;0.30;;;4.90;99.90;;;;;;5057349;28;20032;-91
2020/12/24 05:54:33;;;;;;;1.10;0.40;;;4.90;99.90;;;;;;5057866;28;20042;-89
2020/12/24 05:57:00;;;;;;;1.52;0.50;;;4.80;99.90;;;;;;5057336;28;20040;-90
2020/12/24 05:59:29;;;;;;;1.25;0.40;;;4.80;99.90;;;;;;5057089;28;20029;-89
2020/12/24 06:02:15;;;;;;;1.92;0.40;;;4.80;99.90;;;;;;5057847;28;20189;-90
2020/12/24 06:04:44;;;;;;;0.40;0.30;;;4.70;99.90;;;;;;5057935;28;20043;-89
2020/12/24 06:07:21;;;;;;;1.25;0.60;;;4.70;99.90;;;;;;5057663;28;20033;-91
2020/12/24 06:09:51;;;;;;;0.60;0.40;;;4.70;99.90;;;;;;5057493;28;20130;-90
2020/12/24 06:12:19;;;;;;;1.10;0.43;;;4.60;99.90;;;;;;5057289;28;20040;-89
2020/12/24 06:14:48;;;;;;;0.32;0.30;;;4.60;99.90;;;;;;5054987;28;20037;-88
2020/12/24 06:17:21;;;;;;;0.63;0.40;;;4.60;99.90;;;;;;5056403;28;20051;-88
2020/12/24 06:19:47;;;;;;;0.55;0.43;;;4.60;99.90;;;;;;5056155;28;20045;-88
2020/12/24 06:22:15;;;;;;;0.80;0.50;;;4.60;99.90;;;;;;5055932;28;20032;-88
2020/12/24 06:24:46;;;;;;;1.95;0.70;;;4.50;99.90;;;;;;5056860;28;20048;-90
2020/12/24 06:27:21;;;;;;;0.75;0.35;;;4.50;99.90;;;;;;5055930;28;20028;-90
2020/12/24 06:29:50;;;;;;;0.45;0.35;;;4.50;99.90;;;;;;5058314;28;20051;-92
2020/12/24 06:32:18;;;;;;;2.35;0.50;;;4.60;99.90;;;;;;5057118;28;20115;-92
2020/12/24 06:34:44;;;;;;;1.40;0.57;;;4.60;99.90;;;;;;5057265;28;20052;-91
2020/12/24 06:37:16;;;;;;;0.75;0.50;;;4.50;99.90;;;;;;5057424;28;20056;-91
2020/12/24 06:39:47;;;;;;;0.88;0.50;;;4.50;99.90;;;;;;5057183;28;20051;-90
2020/12/24 06:42:40;;;;;;;0.80;0.45;;;4.50;99.90;;;;;;5056988;28;20059;-91
2020/12/24 06:45:12;;;;;;;1.23;0.80;;;4.50;99.90;;;;;;5056801;28;20036;-91
2020/12/24 06:47:39;;;;;;;1.60;0.57;;;4.50;99.90;;;;;;5056849;28;20478;-91
2020/12/24 06:50:38;;;;;;;1.73;0.70;;;4.50;99.90;;;;;;5056802;28;20067;-90
2020/12/24 06:53:30;;;;;;;0.75;0.50;;;4.60;99.90;;;;;;5055143;28;20040;-89
2020/12/24 06:56:16;;;;;;;1.40;0.70;;;4.60;99.90;;;;;;5057297;28;20475;-90
2020/12/24 06:58:45;;;;;;;1.25;0.60;;;4.60;99.90;;;;;;5056996;28;20474;-91
2020/12/24 07:01:19;;;;;;;1.10;0.60;;;4.60;99.90;;;;;;5059672;28;20151;-90
2020/12/24 07:03:46;;;;;;;2.25;0.80;;;4.60;99.90;;;;;;5076278;28;20017;-91
2020/12/24 07:06:12;;;;;;;1.05;0.60;;;4.60;99.90;;;;;;5067492;28;20497;-91
2020/12/24 07:08:40;;;;;;;1.65;0.70;;;4.70;99.90;;;;;;5077177;28;20036;-91
2020/12/24 07:11:06;;;;;;;1.40;0.70;;;4.70;99.90;;;;;;5077520;28;20044;-90
2020/12/24 07:13:36;;;;;;;1.83;0.80;;;4.70;99.90;;;;;;5062942;28;20036;-91
2020/12/24 07:16:04;;;;;;;1.55;0.60;;;4.70;99.90;;;;;;5058322;28;20020;-90
2020/12/24 07:18:34;;;;;;;1.88;0.68;;;4.70;99.90;;;;;;5040336;28;20039;-89
2020/12/24 07:21:02;;;;;;;0.85;0.68;;;4.80;99.90;;;;;;5056537;28;20498;-91
2020/12/24 07:23:35;;;;;;;1.20;0.70;;;4.80;99.90;;;;;;5056670;28;20074;-90
2020/12/24 07:26:05;;;;;;;1.50;0.90;;;4.80;99.90;;;;;;5060021;28;20379;-91
2020/12/24 07:28:35;;;;;;;0.80;0.60;;;4.80;99.90;;;;;;5060553;28;20042;-91
2020/12/24 07:31:06;;;;;;;1.33;0.80;;;4.80;99.90;;;;;;5060702;28;20039;-92
2020/12/24 07:33:33;;;;;;;1.10;0.60;;;4.90;99.90;;;;;;5043542;28;20040;-91
2020/12/24 07:36:00;;;;;;;1.70;0.63;;;4.90;99.90;;;;;;5060445;28;20497;-91
2020/12/24 07:38:30;;;;;;;0.80;0.57;;;4.90;99.90;;;;;;5043893;28;20043;-91
2020/12/24 07:40:56;;;;;;;0.77;0.50;;;4.90;99.90;;;;;;5060478;28;20030;-91
2020/12/24 07:43:24;;;;;;;1.38;0.47;;;4.90;99.90;;;;;;5043641;28;20082;-91
2020/12/24 07:45:50;;;;;;;1.60;0.60;;;5.00;99.90;;;;;;5060090;28;20028;-90
2020/12/24 07:48:21;;;;;;;1.70;0.50;;;4.90;99.90;;;;;;5060276;28;20402;-90
2020/12/24 07:50:49;;;;;;;1.50;0.65;;;4.90;99.90;;;;;;5059442;28;20047;-91
2020/12/24 07:53:26;;;;;;;1.90;1.00;;;4.90;99.90;;;;;;5060363;28;20131;-91
2020/12/24 07:55:51;;;;;;;1.73;0.90;;;4.90;99.90;;;;;;5060549;28;20036;-91
2020/12/24 07:58:18;;;;;;;1.52;0.95;;;4.90;99.90;;;;;;5061236;28;20032;-91
2020/12/24 08:00:52;;;;;;;2.60;1.10;;;4.90;99.90;;;;;;5060539;28;20044;-91
2020/12/24 08:03:18;;;;;;;;;;;4.90;99.90;;;;;;5060402;28;20041;-91
2020/12/24 08:05:45;;;;;;;1.70;1.17;;;4.90;99.90;;;;;;5076768;28;19943;-90
2020/12/24 08:08:11;;;;;;;3.47;1.38;;;4.90;99.90;;;;;;5059639;28;20055;-92
2020/12/24 08:10:41;;;;;;;1.95;1.23;;;4.90;99.90;;;;;;5060010;28;20035;-92
2020/12/24 08:13:08;;;;;;;2.70;1.20;;;4.90;99.90;;;;;;5059524;28;20052;-91
2020/12/24 08:15:41;;;;;;;3.33;1.13;;;4.90;99.90;;;;;;5059476;28;20021;-91
2020/12/24 08:18:10;;;;;;;1.00;0.70;;;4.90;99.90;;;;;;5059907;28;20130;-90
2020/12/24 08:20:58;;;;;;;2.60;0.90;;;4.90;99.90;;;;;;5059809;28;20040;-91
2020/12/24 08:23:55;;;;;;;1.23;0.75;;;4.90;99.90;;;;;;5059386;28;20052;-90
2020/12/24 08:26:21;;;;;;;2.08;1.08;;;4.80;99.90;;;;;;5068032;28;20101;-91
2020/12/24 08:28:53;;;;;;;3.03;1.00;;;4.90;99.90;;;;;;5058303;28;20024;-90
2020/12/24 08:31:20;;;;;;;1.92;1.00;;;4.90;99.90;;;;;;5059511;28;20033;-92
2020/12/24 08:33:49;;;;;;;2.33;1.45;;;4.90;99.90;;;;;;5075986;28;20036;-92
2020/12/24 08:36:21;;;;;;;3.35;1.50;;;4.90;99.90;;;;;;5063836;28;20119;-94
2020/12/24 08:38:47;;;;;;;2.40;1.52;;;5.00;99.90;;;;;;5073978;28;20547;-90
2020/12/24 08:41:25;;;;;;;3.10;1.60;;;5.00;99.90;;;;;;5065413;28;20116;-91
2020/12/24 08:43:53;;;;;;;3.08;1.90;;;5.10;99.90;;;;;;5058940;28;20028;-91
2020/12/24 08:46:20;;;;;;;2.58;1.88;;;5.10;99.90;;;;;;5056263;28;20551;-93
2020/12/24 08:48:46;;;;;;;3.40;2.17;;;5.10;99.90;;;;;;5055981;28;20032;-92
2020/12/24 08:51:17;;;;;;;3.42;2.38;;;5.10;99.90;;;;;;5054511;28;20052;-92
2020/12/24 08:53:43;;;;;;;3.42;1.98;;;5.20;99.90;;;;;;5054767;28;20045;-92
2020/12/24 08:56:18;;;;;;;4.10;2.22;;;5.20;99.90;;;;;;5055249;28;20070;-91
2020/12/24 08:58:51;;;;;;;4.82;2.30;;;5.30;99.90;;;;;;5058197;28;20041;-90
2020/12/24 09:01:20;;;;;;;2.95;2.10;;;5.20;99.90;;;;;;5063800;28;20024;-91
2020/12/24 09:03:47;;;;;;;4.07;2.22;;;5.20;99.90;;;;;;5060043;28;20033;-91
2020/12/24 09:06:16;;;;;;;3.85;1.95;;;5.20;99.90;;;;;;5046714;28;20043;-91
2020/12/24 09:08:49;;;;;;;3.78;2.15;;;5.20;99.90;;;;;;5043990;28;20033;-90
2020/12/24 09:11:27;;;;;;;2.80;1.88;;;5.20;99.90;;;;;;5055931;28;20036;-91
2020/12/24 09:13:59;;;;;;;3.85;2.45;;;5.20;99.90;;;;;;5055946;28;20045;-91
2020/12/24 09:16:26;;;;;;;3.00;2.20;;;5.20;99.90;;;;;;5055830;28;20096;-90
2020/12/24 09:19:08;;;;;;;4.28;2.10;;;5.20;99.90;;;;;;5055967;28;20069;-90
2020/12/24 09:21:38;;;;;;;4.15;2.10;;;5.20;99.90;;;;;;5058831;28;20037;-92
2020/12/24 09:24:08;;;;;;;3.25;2.10;;;5.20;99.90;;;;;;5061015;28;20068;-90
2020/12/24 09:26:50;;;;;;;3.45;2.15;;;5.20;99.90;;;;;;5058296;28;20036;-91
2020/12/24 09:29:17;;;;;;;2.97;1.98;;;5.20;99.90;;;;;;5058371;28;20044;-92
2020/12/24 09:31:55;;;;;;;3.53;2.30;;;5.30;99.90;;;;;;5041628;28;20090;-91
2020/12/24 09:34:21;;;;;;;4.05;2.63;;;5.30;99.90;;;;;;5058589;28;20190;-93
2020/12/24 09:36:48;;;;;;;3.45;2.42;;;5.30;99.90;;;;;;5066983;28;20052;-91
2020/12/24 09:39:13;;;;;;;2.50;2.00;;;5.30;99.90;;;;;;5059144;28;20033;-93
2020/12/24 09:41:46;;;;;;;3.60;2.40;;;5.30;99.90;;;;;;5075723;28;20032;-92
2020/12/24 09:44:15;;;;;;;3.25;2.20;;;5.30;99.90;;;;;;5079729;28;20040;-93
2020/12/24 09:46:41;;;;;;;3.50;2.00;;;5.30;99.90;;;;;;5049155;28;20542;-92
2020/12/24 09:49:07;;;;;;;3.42;2.00;;;5.30;99.90;;;;;;5035809;28;20042;-91
2020/12/24 09:51:35;;;;;;;3.78;2.53;;;5.40;99.90;;;;;;5055542;28;20048;-92
2020/12/24 09:54:01;;;;;;;3.67;2.20;;;5.40;99.90;;;;;;5060699;28;20583;-93
2020/12/24 09:56:27;;;;;;;3.90;2.13;;;5.40;99.90;;;;;;5053922;28;20032;-90
2020/12/24 09:58:53;;;;;;;3.53;2.00;;;5.40;99.90;;;;;;5078127;28;20127;-91
2020/12/24 10:01:18;;;;;;;3.65;2.10;;;5.40;99.90;;;;;;5071161;28;20483;-91
2020/12/24 10:03:45;;;;;;;3.67;2.35;;;5.40;99.90;;;;;;5076743;28;20088;-91
2020/12/24 10:06:11;;;;;;;2.97;2.05;;;5.40;99.90;;;;;;5060468;28;20020;-89
2020/12/24 10:08:36;;;;;;;2.95;2.03;;;5.40;99.90;;;;;;5058757;28;20024;-89
2020/12/24 10:11:02;;;;;;;5.55;2.28;;;5.50;99.90;;;;;;5058085;28;20031;-91
2020/12/24 10:13:28;;;;;;;4.15;2.10;;;5.50;99.90;;;;;;5063355;28;20577;-87
2020/12/24 10:15:53;;;;;;;4.82;2.22;;;5.50;99.90;;;;;;5075317;28;20040;-89
2020/12/24 10:18:19;;;;;;;3.42;2.05;;;5.50;99.90;;;;;;5057053;28;20036;-90
2020/12/24 10:20:44;;;;;;;3.60;2.28;;;5.50;99.90;;;;;;5075554;28;20094;-90
2020/12/24 10:23:10;;;;;;;2.78;1.80;;;5.60;99.90;;;;;;5057240;28;20081;-90
2020/12/24 10:25:37;;;;;;;3.25;1.98;;;5.60;99.90;;;;;;5073786;28;20032;-93
2020/12/24 10:28:03;;;;;;;4.07;2.22;;;5.60;99.90;;;;;;5056943;28;20103;-90
2020/12/24 10:30:30;;;;;;;2.78;1.80;;;5.60;99.90;;;;;;5074930;28;20029;-91
2020/12/24 10:32:55;;;;;;;2.42;1.60;;;5.60;99.90;;;;;;5057495;28;20094;-91
2020/12/24 10:35:22;;;;;;;5.40;1.83;;;5.60;99.90;;;;;;5056657;28;20078;-90
2020/12/24 10:37:48;;;;;;;5.57;1.80;;;5.70;99.90;;;;;;5074602;28;20431;-91
2020/12/24 10:40:13;;;;;;;6.53;2.03;;;5.70;99.90;;;;;;5056970;28;20058;-91
2020/12/24 10:42:40;;;;;;;4.72;1.90;;;5.70;99.90;;;;;;5057587;28;20036;-89
2020/12/24 10:45:08;;;;;;;3.17;1.80;;;5.70;99.90;;;;;;5059272;28;20028;-91
2020/12/24 10:47:34;;;;;;;3.95;1.60;;;5.70;99.90;;;;;;5056640;28;20053;-91
2020/12/24 10:50:00;;;;;;;5.75;2.20;;;5.70;99.90;;;;;;5056256;28;20041;-91
2020/12/24 10:52:25;;;;;;;5.72;1.80;;;5.80;99.90;;;;;;5056500;28;20036;-90
2020/12/24 10:54:51;;;;;;;2.95;1.40;;;5.80;99.90;;;;;;5073861;28;20043;-89
2020/12/24 10:57:16;;;;;;;4.32;1.70;;;5.80;99.90;;;;;;5041343;28;20425;-90
2020/12/24 10:59:42;;;;;;;4.72;1.70;;;5.90;99.90;;;;;;5073704;28;20032;-89
2020/12/24 11:02:08;;;;;;;5.50;1.60;;;5.90;99.90;;;;;;5059689;28;20507;-89
2020/12/24 11:04:34;;;;;;;5.07;1.67;;;5.90;99.90;;;;;;5059038;28;20046;-90
2020/12/24 11:07:00;;;;;;;3.45;1.67;;;5.90;99.90;;;;;;5060577;28;20028;-90
2020/12/24 11:09:26;;;;;;;6.22;2.00;;;6.00;99.90;;;;;;5075491;28;20036;-90
2020/12/24 11:11:51;;;;;;;5.20;1.70;;;6.00;99.90;;;;;;5057061;28;20055;-89
2020/12/24 11:14:17;;;;;;;6.57;2.35;;;6.00;99.90;;;;;;5060628;28;20039;-91
2020/12/24 11:16:42;;;;;;;7.72;2.63;;;6.10;99.90;;;;;;5076713;28;20065;-91
2020/12/24 11:19:08;;;;;;;7.28;1.80;;;6.10;99.90;;;;;;5057336;28;20025;-91
2020/12/24 11:21:35;;;;;;;6.38;1.92;;;6.10;99.90;;;;;;5056562;28;20040;-92
2020/12/24 11:24:08;;;;;;;3.22;1.95;;;6.10;99.90;;;;;;5056746;28;20033;-93
2020/12/24 11:26:35;;;;;;;6.20;1.88;;;6.10;99.90;;;;;;5074855;28;20437;-90
2020/12/24 11:29:02;;;;;;;6.18;2.22;;;6.20;99.90;;;;;;5092012;28;20017;-89
2020/12/24 11:31:30;;;;;;;6.22;2.25;;;6.20;99.90;;;;;;5097468;28;20064;-88
2020/12/24 11:33:56;;;;;;;6.72;1.90;;;6.20;99.90;;;;;;5079544;28;20044;-90
2020/12/24 11:36:22;;;;;;;3.72;1.70;;;6.20;99.90;;;;;;5063341;28;20032;-89
2020/12/24 11:38:49;;;;;;;9.88;2.20;;;6.20;99.90;;;;;;5061259;28;20033;-89
2020/12/24 11:41:20;;;;;;;4.03;1.65;;;6.30;99.90;;;;;;5058639;28;20025;-92
2020/12/24 11:43:46;;;;;;;8.23;2.38;;;6.30;99.90;;;;;;5057150;28;20041;-91
2020/12/24 11:46:12;;;;;;;5.82;1.88;;;6.30;99.90;;;;;;5073582;28;20028;-92
2020/12/24 11:48:39;;;;;;;5.05;2.03;;;6.30;99.90;;;;;;5056121;28;20028;-90
2020/12/24 11:51:06;;;;;;;8.10;2.30;;;6.30;99.90;;;;;;5055742;28;20045;-92
2020/12/24 11:53:32;;;;;;;6.75;2.25;;;6.40;99.90;;;;;;5058706;28;20086;-90
2020/12/24 11:55:58;;;;;;;6.35;2.45;;;6.40;99.90;;;;;;5056907;28;20033;-89
2020/12/24 11:58:25;;;;;;;8.18;2.40;;;6.50;99.90;;;;;;5075738;28;20545;-92
2020/12/24 12:00:50;;;;;;;4.70;1.65;;;6.50;99.90;;;;;;5056623;28;20039;-88
2020/12/24 12:03:16;;;;;;;7.20;2.20;;;6.50;99.90;;;;;;5055755;28;20394;-91
2020/12/24 12:05:42;;;;;;;7.03;2.65;;;6.50;99.90;;;;;;5056743;28;20033;-88
2020/12/24 12:08:07;;;;;;;7.53;2.33;;;6.50;99.90;;;;;;5051618;28;20036;-92
2020/12/24 12:10:33;;;;;;;6.22;1.90;;;6.60;99.90;;;;;;5077827;28;20031;-91
2020/12/24 12:12:59;;;;;;;7.28;2.17;;;6.60;99.90;;;;;;5074728;28;20079;-91
2020/12/24 12:15:24;;;;;;;7.20;2.30;;;6.60;99.90;;;;;;5083218;28;20028;-93
2020/12/24 12:17:50;;;;;;;5.97;2.20;;;6.60;99.90;;;;;;5061227;28;20036;-89
2020/12/24 12:20:15;;;;;;;5.72;2.08;;;6.60;99.90;;;;;;5059498;28;20478;-89
2020/12/24 12:22:41;;;;;;;5.30;1.60;;;6.60;99.90;;;;;;5060803;28;20036;-90
2020/12/24 12:25:07;;;;;;;7.60;2.22;;;6.70;99.90;;;;;;5069586;28;20028;-92
2020/12/24 12:27:32;;;;;;;5.97;2.05;;;6.70;99.90;;;;;;5075637;28;20021;-92
2020/12/24 12:29:58;;;;;;;12.38;2.15;;;6.70;99.90;;;;;;5061676;28;20383;-93
2020/12/24 12:32:24;;;;;;;5.75;1.70;;;6.60;99.90;;;;;;5062647;28;20135;-94
2020/12/24 12:34:49;;;;;;;9.95;2.33;;;6.70;99.90;;;;;;5067217;28;20032;-93
2020/12/24 12:37:17;;;;;;;6.18;1.45;;;6.60;99.90;;;;;;5060848;28;20039;-93
2020/12/24 12:39:43;;;;;;;6.82;1.65;;;6.60;99.90;;;;;;5037576;28;20485;-94
2020/12/24 12:42:09;;;;;;;9.18;2.45;;;6.60;99.90;;;;;;5079532;28;20473;-95
2020/12/24 12:44:34;;;;;;;8.45;1.40;;;6.60;99.90;;;;;;5078073;28;20110;-96
2020/12/24 12:47:02;;;;;;;8.00;1.75;;;6.60;99.90;;;;;;5043130;22;20083;-92
2020/12/24 12:49:29;;;;;;;12.50;1.92;;;6.60;99.90;;;;;;5017135;28;20061;-90
2020/12/24 12:51:55;;;;;;;8.88;1.35;;;6.50;99.90;;;;;;5030905;28;20033;-90
2020/12/24 12:54:26;;;;;;;9.48;2.45;;;6.50;99.90;;;;;;5029693;28;20030;-91
2020/12/24 12:56:53;;;;;;;10.35;1.88;;;6.50;99.90;;;;;;5035880;28;20030;-92
2020/12/24 12:59:19;;;;;;;6.25;0.95;;;6.50;99.90;;;;;;5024836;28;20030;-92